Time;durP1;ratioP1;P1;durP2;ratioP2;P2;SDS_P1;SDS_P2;PMS_P1;PMS_P2;Temp;Humidity;BMP_temperature;BMP_pressure;BME280_temperature;BME280_humidity;BME280_pressure;Samples;Min_cycle;Max_cycle;Signal;HPM_P1;HPM_P2
2022/09/17 00:00:51;;;;;;;4.57;1.55;;;11.70;99.90;;;;;;5046997;28;20021;-82
2022/09/17 00:03:17;;;;;;;4.75;1.38;;;11.70;99.90;;;;;;5041931;28;20071;-83
2022/09/17 00:05:45;;;;;;;10.27;1.55;;;11.80;99.90;;;;;;5058182;28;20029;-84
2022/09/17 00:08:13;;;;;;;6.78;1.80;;;11.70;99.90;;;;;;5056409;28;20025;-85
2022/09/17 00:10:45;;;;;;;4.18;1.15;;;11.70;99.90;;;;;;5056249;28;20391;-84
2022/09/17 00:13:11;;;;;;;4.40;1.20;;;11.90;99.90;;;;;;5039348;28;20052;-83
2022/09/17 00:15:45;;;;;;;6.10;1.23;;;11.80;99.90;;;;;;5056792;28;20021;-85
2022/09/17 00:18:12;;;;;;;7.75;1.60;;;11.80;99.90;;;;;;5056696;28;20040;-84
2022/09/17 00:20:39;;;;;;;8.75;1.77;;;11.90;99.90;;;;;;5033321;28;20021;-82
2022/09/17 00:23:07;;;;;;;2.42;1.13;;;11.80;99.90;;;;;;5037371;28;20025;-84
2022/09/17 00:25:37;;;;;;;6.55;2.58;;;11.70;99.90;;;;;;5039101;28;20029;-82
2022/09/17 00:28:02;;;;;;;7.30;1.45;;;11.70;99.90;;;;;;5036405;28;20029;-83
2022/09/17 00:30:30;;;;;;;9.32;2.20;;;11.70;99.90;;;;;;5028241;28;20389;-82
2022/09/17 00:32:56;;;;;;;6.05;1.80;;;11.80;99.90;;;;;;5035565;28;20431;-83
2022/09/17 00:35:23;;;;;;;8.35;2.13;;;11.80;99.90;;;;;;5038866;28;20060;-84
2022/09/17 00:37:49;;;;;;;4.63;1.75;;;11.90;99.90;;;;;;5041470;28;20051;-83
2022/09/17 00:40:14;;;;;;;4.20;1.50;;;11.80;99.90;;;;;;5058204;28;20029;-84
2022/09/17 00:42:40;;;;;;;10.88;1.65;;;11.80;99.90;;;;;;5056493;28;20422;-83
2022/09/17 00:45:08;;;;;;;8.23;1.45;;;11.80;99.90;;;;;;5077017;22;20095;-91
2022/09/17 00:47:38;;;;;;;5.97;1.20;;;11.80;99.90;;;;;;5064684;28;20078;-89
2022/09/17 00:50:07;;;;;;;2.55;1.13;;;11.90;99.90;;;;;;5040555;28;20104;-89
2022/09/17 00:52:39;;;;;;;5.13;1.70;;;11.80;99.90;;;;;;5063104;28;20505;-89
2022/09/17 00:55:21;;;;;;;7.97;2.22;;;11.90;99.90;;;;;;5048124;28;20033;-90
2022/09/17 00:57:49;;;;;;;6.50;2.45;;;11.80;99.90;;;;;;5033522;28;20029;-90
2022/09/17 01:00:16;;;;;;;7.35;1.88;;;11.80;99.90;;;;;;5035546;28;20596;-89
2022/09/17 01:02:42;;;;;;;3.85;1.65;;;11.70;99.90;;;;;;5056396;28;20067;-90
2022/09/17 01:05:10;;;;;;;6.60;1.80;;;11.60;99.90;;;;;;5055857;28;20482;-91
2022/09/17 01:08:03;;;;;;;4.65;1.83;;;11.70;99.90;;;;;;5046354;28;20044;-89
2022/09/17 01:10:51;;;;;;;3.85;1.60;;;11.60;99.90;;;;;;5052131;28;20119;-90
2022/09/17 01:13:49;;;;;;;5.25;1.83;;;11.70;99.90;;;;;;5049884;28;20024;-90
2022/09/17 01:16:42;;;;;;;9.50;3.28;;;11.60;99.90;;;;;;5059996;28;20573;-90
2022/09/17 01:19:53;;;;;;;4.90;1.95;;;11.60;99.90;;;;;;5066862;28;20056;-89
2022/09/17 01:22:34;;;;;;;12.68;2.63;;;11.50;99.90;;;;;;5054299;28;20021;-91
2022/09/17 01:25:13;;;;;;;7.50;2.08;;;11.50;99.90;;;;;;5052456;28;20017;-90
2022/09/17 01:27:57;;;;;;;4.45;1.83;;;11.70;99.90;;;;;;5034181;28;20390;-89
2022/09/17 01:30:50;;;;;;;5.20;1.27;;;11.60;99.90;;;;;;5042826;28;20057;-90
2022/09/17 01:33:29;;;;;;;7.47;2.08;;;11.60;99.90;;;;;;5051063;28;20021;-91
2022/09/17 01:35:57;;;;;;;8.55;2.05;;;11.70;99.90;;;;;;5054207;28;20092;-91
2022/09/17 01:39:02;;;;;;;7.85;2.28;;;11.70;99.90;;;;;;5046799;28;20116;-92
2022/09/17 01:41:39;;;;;;;6.78;2.03;;;11.70;99.90;;;;;;5018228;28;20045;-92
2022/09/17 01:44:41;;;;;;;5.75;1.85;;;11.70;99.90;;;;;;5011852;28;20062;-91
2022/09/17 01:47:21;;;;;;;7.00;2.10;;;11.50;99.90;;;;;;5064487;28;20037;-92
2022/09/17 01:49:51;;;;;;;7.97;1.98;;;11.60;99.90;;;;;;5063059;28;20024;-93
2022/09/17 01:52:18;;;;;;;7.82;1.75;;;11.50;99.90;;;;;;5058918;28;20056;-93
2022/09/17 01:54:48;;;;;;;5.13;1.83;;;11.60;99.90;;;;;;5055758;28;20163;-93
2022/09/17 01:57:34;;;;;;;6.70;2.00;;;11.60;99.90;;;;;;5069732;28;20028;-93
2022/09/17 02:00:06;;;;;;;7.35;2.58;;;11.70;99.90;;;;;;5054802;28;20090;-92
2022/09/17 02:02:51;;;;;;;9.93;2.72;;;11.80;99.90;;;;;;5055536;28;20050;-93
2022/09/17 02:05:39;;;;;;;7.28;2.58;;;11.90;99.90;;;;;;5049588;28;20035;-92
2022/09/17 02:08:09;;;;;;;6.70;2.72;;;12.00;99.90;;;;;;5039685;28;20048;-92
2022/09/17 02:11:02;;;;;;;5.03;1.98;;;11.90;99.90;;;;;;5054152;28;20056;-93
2022/09/17 02:13:53;;;;;;;2.47;1.52;;;11.90;99.90;;;;;;5045369;28;20033;-92
2022/09/17 02:16:29;;;;;;;8.02;2.15;;;11.90;99.90;;;;;;5065433;28;20025;-93
2022/09/17 02:19:13;;;;;;;7.40;2.72;;;11.90;99.90;;;;;;5056885;28;20021;-92
2022/09/17 02:21:52;;;;;;;7.63;2.40;;;11.90;99.90;;;;;;5059376;28;20578;-92
2022/09/17 02:24:30;;;;;;;7.35;2.80;;;11.80;99.90;;;;;;5065161;28;20036;-92
2022/09/17 02:27:30;;;;;;;7.20;2.97;;;11.70;99.90;;;;;;5066260;28;20059;-91
2022/09/17 02:29:55;;;;;;;9.20;2.90;;;11.60;99.90;;;;;;5071348;28;20024;-92
2022/09/17 02:32:24;;;;;;;5.53;2.60;;;11.70;99.90;;;;;;5065249;28;20036;-92
2022/09/17 02:35:12;;;;;;;7.28;2.50;;;11.80;99.90;;;;;;5063479;28;20024;-91
2022/09/17 02:37:39;;;;;;;8.75;2.80;;;11.70;99.90;;;;;;5050541;28;20021;-92
2022/09/17 02:40:06;;;;;;;10.63;3.47;;;11.80;99.90;;;;;;5041811;28;20030;-93
2022/09/17 02:43:05;;;;;;;7.03;2.85;;;11.80;99.90;;;;;;5055872;28;20048;-92
2022/09/17 02:46:09;;;;;;;4.70;2.83;;;11.70;99.90;;;;;;5050627;28;20043;-91
2022/09/17 02:48:57;;;;;;;7.65;3.22;;;11.60;99.90;;;;;;5051632;28;20386;-92
2022/09/17 02:51:53;;;;;;;9.38;3.45;;;11.50;99.90;;;;;;5062515;28;20025;-92
2022/09/17 02:54:46;;;;;;;14.95;2.55;;;11.50;99.90;;;;;;5053119;28;20025;-92
2022/09/17 02:57:37;;;;;;;12.68;3.33;;;11.60;99.90;;;;;;5082810;28;20036;-92
2022/09/17 03:00:23;;;;;;;10.02;2.50;;;11.60;99.90;;;;;;5056112;28;20033;-92
2022/09/17 03:03:22;;;;;;;8.57;2.60;;;11.60;99.90;;;;;;5020772;28;20033;-92
2022/09/17 03:06:26;;;;;;;10.80;2.67;;;11.80;99.90;;;;;;5022559;28;20400;-94
2022/09/17 03:08:56;;;;;;;8.85;2.50;;;11.80;99.90;;;;;;5007351;28;20029;-90
2022/09/17 03:11:26;;;;;;;11.07;3.67;;;11.60;99.90;;;;;;5015139;28;20033;-90
2022/09/17 03:13:51;;;;;;;11.18;2.17;;;11.70;99.90;;;;;;5024320;28;20038;-93
2022/09/17 03:16:17;;;;;;;16.77;3.47;;;11.60;99.90;;;;;;5028154;28;20049;-92
2022/09/17 03:18:43;;;;;;;10.40;1.98;;;11.70;99.90;;;;;;5027779;28;20017;-93
2022/09/17 03:21:10;;;;;;;5.55;2.15;;;11.70;99.90;;;;;;5009893;28;20042;-93
2022/09/17 03:23:36;;;;;;;6.95;2.05;;;11.60;99.90;;;;;;5010884;28;20053;-93
2022/09/17 03:26:02;;;;;;;12.05;2.83;;;11.60;99.90;;;;;;5007275;28;20022;-93
2022/09/17 03:28:27;;;;;;;14.77;3.53;;;11.80;99.90;;;;;;5028330;28;20146;-92
2022/09/17 03:30:53;;;;;;;10.38;2.53;;;11.70;99.90;;;;;;5024267;28;20026;-92
2022/09/17 03:33:19;;;;;;;7.63;2.10;;;11.70;99.90;;;;;;5012376;28;20153;-93
2022/09/17 03:35:45;;;;;;;8.43;3.55;;;11.60;99.90;;;;;;5007958;28;20037;-93
2022/09/17 03:38:12;;;;;;;10.57;1.88;;;11.60;99.90;;;;;;5026499;28;20089;-93
2022/09/17 03:40:39;;;;;;;14.30;2.60;;;11.60;99.90;;;;;;5040143;28;20033;-93
2022/09/17 03:43:05;;;;;;;6.55;2.20;;;11.70;99.90;;;;;;5032392;28;20037;-94
2022/09/17 03:45:34;;;;;;;7.68;2.38;;;11.80;99.90;;;;;;5024019;28;20096;-93
2022/09/17 03:48:00;;;;;;;8.95;2.05;;;11.70;99.90;;;;;;5034864;28;20078;-93
2022/09/17 03:50:25;;;;;;;8.90;2.60;;;11.50;99.90;;;;;;5030126;28;20061;-91
2022/09/17 03:52:51;;;;;;;6.95;2.58;;;11.50;99.90;;;;;;5028059;28;19997;-94
2022/09/17 03:55:17;;;;;;;10.20;2.25;;;11.60;99.90;;;;;;5027127;28;20121;-93
2022/09/17 03:57:42;;;;;;;7.60;1.77;;;11.80;99.90;;;;;;5017368;28;20045;-93
2022/09/17 04:00:11;;;;;;;6.82;1.90;;;11.90;99.90;;;;;;5069148;28;20067;-91
2022/09/17 04:02:42;;;;;;;11.68;2.35;;;11.80;99.90;;;;;;5082435;28;20017;-93
2022/09/17 04:05:10;;;;;;;4.15;1.70;;;11.80;99.90;;;;;;5068166;28;20096;-94
2022/09/17 04:07:38;;;;;;;10.43;2.00;;;11.90;99.90;;;;;;5076256;28;20029;-93
2022/09/17 04:10:09;;;;;;;9.52;1.73;;;11.70;99.90;;;;;;5064383;28;20045;-93
2022/09/17 04:12:35;;;;;;;5.50;2.05;;;11.60;99.90;;;;;;5060617;28;20128;-94
2022/09/17 04:15:01;;;;;;;7.53;1.90;;;11.50;99.90;;;;;;5077989;28;20062;-92
2022/09/17 04:17:27;;;;;;;15.05;2.53;;;11.50;99.90;;;;;;5065665;28;20005;-92
2022/09/17 04:19:54;;;;;;;6.75;1.52;;;11.60;99.90;;;;;;5065815;28;20051;-93
2022/09/17 04:22:22;;;;;;;5.57;1.50;;;11.70;99.90;;;;;;5067793;28;20032;-92
2022/09/17 04:24:48;;;;;;;13.50;2.10;;;11.60;99.90;;;;;;5069581;28;20033;-93
2022/09/17 04:27:16;;;;;;;7.78;1.90;;;11.50;99.90;;;;;;5077616;28;20037;-94
2022/09/17 04:29:41;;;;;;;13.90;2.05;;;11.50;99.90;;;;;;5077709;28;20445;-94
2022/09/17 04:32:07;;;;;;;10.90;1.58;;;11.50;99.90;;;;;;5066500;28;20039;-94
2022/09/17 04:34:33;;;;;;;12.73;2.30;;;11.60;99.90;;;;;;5055442;28;20081;-93
2022/09/17 04:37:10;;;;;;;6.35;1.45;;;11.60;99.90;;;;;;5079103;28;20105;-92
2022/09/17 04:39:36;;;;;;;10.60;1.98;;;11.50;99.90;;;;;;5084568;28;20044;-93
2022/09/17 04:42:02;;;;;;;5.65;1.60;;;11.50;99.90;;;;;;5081888;28;20021;-94
2022/09/17 04:44:28;;;;;;;3.95;1.42;;;11.40;99.90;;;;;;5077392;28;20025;-93
2022/09/17 04:46:56;;;;;;;7.97;1.40;;;11.40;99.90;;;;;;5076311;28;20029;-94
2022/09/17 04:49:22;;;;;;;9.80;2.28;;;11.50;99.90;;;;;;5062051;28;20038;-93
2022/09/17 04:51:47;;;;;;;10.77;1.58;;;11.50;99.90;;;;;;5062520;28;20021;-93
2022/09/17 04:54:21;;;;;;;16.40;1.98;;;11.40;99.90;;;;;;5059094;28;20030;-94
2022/09/17 04:56:47;;;;;;;7.55;2.65;;;11.60;99.90;;;;;;5078675;28;20040;-92
2022/09/17 04:59:12;;;;;;;8.80;1.13;;;11.60;99.90;;;;;;5060951;28;20037;-93
2022/09/17 05:01:38;;;;;;;7.70;1.40;;;11.70;99.90;;;;;;5058339;28;20044;-93
2022/09/17 05:04:04;;;;;;;6.07;1.33;;;11.70;99.90;;;;;;5060725;28;20091;-92
2022/09/17 05:06:29;;;;;;;5.90;1.42;;;11.90;99.90;;;;;;5041121;28;20028;-93
2022/09/17 05:08:55;;;;;;;4.75;1.60;;;11.80;99.90;;;;;;5064680;28;20490;-92
2022/09/17 05:11:21;;;;;;;9.73;2.97;;;11.70;99.90;;;;;;5076678;28;20470;-92
2022/09/17 05:13:46;;;;;;;8.30;1.60;;;11.60;99.90;;;;;;5045745;28;20052;-93
2022/09/17 05:16:12;;;;;;;9.20;1.98;;;11.60;99.90;;;;;;5052145;28;20032;-92
2022/09/17 05:18:37;;;;;;;10.82;1.75;;;11.60;99.90;;;;;;5052475;28;20488;-93
2022/09/17 05:21:06;;;;;;;11.48;1.77;;;11.70;99.90;;;;;;5049909;28;20081;-92
2022/09/17 05:23:47;;;;;;;8.52;1.83;;;11.70;99.90;;;;;;5063987;28;20029;-92
2022/09/17 05:26:13;;;;;;;11.60;2.45;;;11.70;99.90;;;;;;5053051;28;20021;-92
2022/09/17 05:28:39;;;;;;;2.58;1.13;;;11.60;99.90;;;;;;5052694;28;20025;-92
2022/09/17 05:31:05;;;;;;;6.28;1.75;;;11.70;99.90;;;;;;5056636;28;20077;-93
2022/09/17 05:33:31;;;;;;;7.50;1.90;;;11.70;99.90;;;;;;5055319;28;20029;-92
2022/09/17 05:35:56;;;;;;;5.53;1.15;;;11.60;99.90;;;;;;5053687;28;20024;-91
2022/09/17 05:38:22;;;;;;;6.28;1.38;;;11.60;99.90;;;;;;5058298;28;20029;-92
2022/09/17 05:40:48;;;;;;;5.20;1.33;;;11.60;99.90;;;;;;5060032;28;20029;-92
2022/09/17 05:43:16;;;;;;;7.05;1.70;;;11.50;99.90;;;;;;5074263;28;20032;-91
2022/09/17 05:45:42;;;;;;;8.73;1.50;;;11.50;99.90;;;;;;5059369;28;20039;-92
2022/09/17 05:48:11;;;;;;;3.67;1.60;;;11.50;99.90;;;;;;5053793;28;20029;-90
2022/09/17 05:50:37;;;;;;;9.63;1.95;;;11.50;99.90;;;;;;5056002;28;20088;-92
2022/09/17 05:53:06;;;;;;;11.20;2.15;;;11.50;99.90;;;;;;5076359;28;20106;-93
2022/09/17 05:55:32;;;;;;;8.07;2.67;;;11.60;99.90;;;;;;5054541;28;20025;-92
2022/09/17 05:57:58;;;;;;;10.70;1.90;;;11.70;99.90;;;;;;5066225;28;20038;-92
2022/09/17 06:00:23;;;;;;;6.18;2.28;;;11.80;99.90;;;;;;5054710;28;20029;-93
2022/09/17 06:02:56;;;;;;;5.43;1.40;;;11.80;99.90;;;;;;5056221;28;20036;-92
2022/09/17 06:05:23;;;;;;;9.13;2.13;;;11.90;99.90;;;;;;5056301;28;20024;-92
2022/09/17 06:07:49;;;;;;;10.55;1.30;;;11.70;99.90;;;;;;5042621;28;20048;-92
2022/09/17 06:10:15;;;;;;;19.67;2.40;;;11.60;99.90;;;;;;5048001;28;20466;-91
2022/09/17 06:12:43;;;;;;;7.15;1.30;;;11.60;99.90;;;;;;5058295;28;20060;-93
2022/09/17 06:15:13;;;;;;;13.05;1.80;;;11.70;99.90;;;;;;5053587;28;20056;-92
2022/09/17 06:17:39;;;;;;;10.65;1.80;;;11.70;99.90;;;;;;5037567;28;20559;-92
2022/09/17 06:20:05;;;;;;;8.75;2.22;;;11.80;99.90;;;;;;5050541;28;20238;-92
2022/09/17 06:22:31;;;;;;;9.75;1.70;;;11.80;99.90;;;;;;5062838;28;20045;-92
2022/09/17 06:24:58;;;;;;;8.90;1.50;;;11.80;99.90;;;;;;5062816;28;20029;-91
2022/09/17 06:27:30;;;;;;;11.30;1.52;;;11.90;99.90;;;;;;5073882;28;20397;-92
2022/09/17 06:29:55;;;;;;;10.70;1.85;;;12.00;99.90;;;;;;5074264;28;20498;-93
2022/09/17 06:32:21;;;;;;;13.32;1.70;;;12.00;99.90;;;;;;5056737;28;20086;-91
2022/09/17 06:34:48;;;;;;;6.32;1.27;;;12.10;99.90;;;;;;5052843;28;20112;-92
2022/09/17 06:37:14;;;;;;;6.57;2.03;;;12.20;99.90;;;;;;5066452;28;20037;-92
2022/09/17 06:39:39;;;;;;;4.22;1.25;;;12.20;99.90;;;;;;5066542;28;20028;-92
2022/09/17 06:42:05;;;;;;;6.13;1.40;;;12.20;99.90;;;;;;5065680;28;20540;-92
2022/09/17 06:44:31;;;;;;;5.72;1.67;;;12.20;99.90;;;;;;5056487;28;20029;-91
2022/09/17 06:46:57;;;;;;;12.30;1.50;;;12.30;99.90;;;;;;5052481;28;20064;-91
2022/09/17 06:49:23;;;;;;;8.45;1.58;;;12.40;99.90;;;;;;5040459;28;20022;-91
2022/09/17 06:51:49;;;;;;;9.10;1.42;;;12.50;99.90;;;;;;5045164;28;20093;-91
2022/09/17 06:54:14;;;;;;;10.07;1.50;;;12.60;99.90;;;;;;5059437;28;20104;-91
2022/09/17 06:56:40;;;;;;;5.40;1.30;;;12.50;99.90;;;;;;5053619;28;20045;-91
2022/09/17 06:59:06;;;;;;;5.05;1.60;;;12.50;99.90;;;;;;5044738;28;20032;-92
2022/09/17 07:01:31;;;;;;;8.93;1.20;;;12.50;99.90;;;;;;5047888;28;20134;-92
2022/09/17 07:03:57;;;;;;;11.15;2.85;;;12.50;99.90;;;;;;5055045;28;20024;-93
2022/09/17 07:06:23;;;;;;;28.45;2.67;;;12.30;99.90;;;;;;5059223;28;20025;-92
2022/09/17 07:08:49;;;;;;;14.52;2.00;;;12.40;99.90;;;;;;5032534;28;20052;-93
2022/09/17 07:11:17;;;;;;;19.23;3.65;;;12.40;99.90;;;;;;5057191;28;20025;-92
2022/09/17 07:13:43;;;;;;;14.98;3.72;;;12.50;99.90;;;;;;5055661;28;20116;-92
2022/09/17 07:16:09;;;;;;;22.30;2.17;;;12.40;99.90;;;;;;5059082;28;20110;-93
2022/09/17 07:18:35;;;;;;;16.58;2.15;;;12.30;99.90;;;;;;5055905;28;20501;-93
2022/09/17 07:21:03;;;;;;;18.20;3.28;;;12.20;99.90;;;;;;5062061;28;20074;-93
2022/09/17 07:23:31;;;;;;;8.18;1.80;;;12.20;99.90;;;;;;5053971;28;20033;-90
2022/09/17 07:25:59;;;;;;;6.75;1.30;;;12.20;99.90;;;;;;5050681;28;20031;-92
2022/09/17 07:28:26;;;;;;;11.40;2.30;;;12.20;99.90;;;;;;5051649;28;20490;-93
2022/09/17 07:30:52;;;;;;;12.32;1.65;;;12.20;99.90;;;;;;5037278;28;20045;-92
2022/09/17 07:33:23;;;;;;;12.93;2.03;;;12.20;99.90;;;;;;5057256;28;20691;-92
2022/09/17 07:35:54;;;;;;;6.05;2.45;;;12.30;99.90;;;;;;5059575;28;20098;-92
2022/09/17 07:38:20;;;;;;;12.85;2.13;;;12.20;99.90;;;;;;5062971;28;20036;-92
2022/09/17 07:40:54;;;;;;;5.07;1.55;;;12.20;99.90;;;;;;5054038;28;20029;-92
2022/09/17 07:43:20;;;;;;;6.22;1.65;;;12.20;99.90;;;;;;5038888;28;20025;-92
2022/09/17 07:45:46;;;;;;;5.07;1.35;;;12.30;99.90;;;;;;5039844;28;20115;-92
2022/09/17 07:48:11;;;;;;;8.05;1.60;;;12.30;99.90;;;;;;5067999;28;20036;-92
2022/09/17 07:50:37;;;;;;;12.77;1.30;;;12.40;99.90;;;;;;5053828;28;20017;-90
2022/09/17 07:53:03;;;;;;;13.45;2.00;;;12.40;99.90;;;;;;5056680;28;20050;-92
2022/09/17 07:55:28;;;;;;;10.70;2.15;;;12.40;99.90;;;;;;5053943;28;20029;-91
2022/09/17 07:57:54;;;;;;;13.68;1.20;;;12.40;99.90;;;;;;5056346;28;20100;-93
2022/09/17 08:00:20;;;;;;;6.53;2.25;;;12.40;99.90;;;;;;5055540;28;20032;-92
2022/09/17 08:02:55;;;;;;;9.70;2.25;;;12.50;99.90;;;;;;5072345;28;20555;-90
2022/09/17 08:05:23;;;;;;;5.18;2.08;;;12.50;99.90;;;;;;5064981;28;20095;-92
2022/09/17 08:07:50;;;;;;;7.82;1.20;;;12.50;99.90;;;;;;5033035;28;20056;-91
2022/09/17 08:10:20;;;;;;;7.93;2.13;;;12.60;99.90;;;;;;5050179;28;20033;-90
2022/09/17 08:12:46;;;;;;;7.15;1.60;;;12.60;99.90;;;;;;5045694;28;20035;-91
2022/09/17 08:15:12;;;;;;;6.97;1.52;;;12.60;99.90;;;;;;5054012;28;20028;-91
2022/09/17 08:17:42;;;;;;;14.30;1.85;;;12.70;99.90;;;;;;5053312;28;20594;-91
2022/09/17 08:20:08;;;;;;;6.13;1.52;;;12.60;99.90;;;;;;5054555;28;20051;-91
2022/09/17 08:22:34;;;;;;;12.82;2.58;;;12.80;99.90;;;;;;5064918;28;20108;-92
2022/09/17 08:24:59;;;;;;;10.95;2.25;;;12.80;99.90;;;;;;5066409;28;20024;-93
2022/09/17 08:27:25;;;;;;;10.45;1.55;;;12.80;99.90;;;;;;5062757;28;20033;-91
2022/09/17 08:29:51;;;;;;;3.95;1.10;;;12.70;99.90;;;;;;5053075;28;20655;-90
2022/09/17 08:32:17;;;;;;;9.43;1.73;;;12.70;99.90;;;;;;5062119;28;20017;-91
2022/09/17 08:34:43;;;;;;;10.65;1.50;;;12.70;99.90;;;;;;5047246;28;20013;-90
2022/09/17 08:37:08;;;;;;;9.90;2.13;;;12.80;99.90;;;;;;5073454;28;20032;-91
2022/09/17 08:40:04;;;;;;;4.07;1.63;;;12.80;99.90;;;;;;5074464;28;20075;-90
2022/09/17 08:42:45;;;;;;;5.82;2.35;;;12.80;99.90;;;;;;5072534;28;20682;-91
2022/09/17 08:45:13;;;;;;;6.43;1.80;;;13.00;99.90;;;;;;5072750;28;20028;-90
2022/09/17 08:47:50;;;;;;;7.90;2.50;;;13.10;99.90;;;;;;5048383;28;20059;-91
2022/09/17 08:50:30;;;;;;;10.38;1.70;;;13.10;99.90;;;;;;5063552;28;20021;-89
2022/09/17 08:53:01;;;;;;;9.38;2.15;;;13.20;99.90;;;;;;5075206;28;20021;-91
2022/09/17 08:55:42;;;;;;;8.05;1.92;;;13.30;99.90;;;;;;5074167;28;20048;-92
2022/09/17 08:58:20;;;;;;;3.42;1.92;;;13.40;99.90;;;;;;5062593;28;20056;-92
2022/09/17 09:00:57;;;;;;;8.50;2.28;;;13.40;99.90;;;;;;5053452;28;20490;-93
2022/09/17 09:03:42;;;;;;;8.68;1.88;;;13.30;99.90;;;;;;5053657;28;20174;-91
2022/09/17 09:06:08;;;;;;;9.18;1.67;;;13.50;99.90;;;;;;5054543;28;20064;-91
2022/09/17 09:09:10;;;;;;;11.00;1.88;;;13.40;99.90;;;;;;5029613;28;20076;-91
2022/09/17 09:11:39;;;;;;;14.23;2.97;;;13.40;99.90;;;;;;5042196;28;20049;-90
2022/09/17 09:14:32;;;;;;;8.85;1.77;;;13.40;99.90;;;;;;5048480;28;20025;-92
2022/09/17 09:17:03;;;;;;;11.25;1.40;;;13.40;99.90;;;;;;5044953;28;20048;-92
2022/09/17 09:19:40;;;;;;;4.00;1.33;;;13.50;99.90;;;;;;5062425;28;20017;-92
2022/09/17 09:22:31;;;;;;;8.90;1.50;;;13.60;99.90;;;;;;5072895;28;20108;-92
2022/09/17 09:25:08;;;;;;;4.95;1.67;;;13.60;99.90;;;;;;5064810;28;20095;-91
2022/09/17 09:27:53;;;;;;;7.68;1.50;;;13.60;99.90;;;;;;5045017;28;20028;-91
2022/09/17 09:30:22;;;;;;;7.65;1.45;;;13.60;99.90;;;;;;5052910;28;20029;-89
2022/09/17 09:33:00;;;;;;;2.17;1.08;;;13.60;99.90;;;;;;5056923;28;20081;-91
2022/09/17 09:35:32;;;;;;;4.13;1.08;;;13.60;99.90;;;;;;5050274;28;20047;-91
2022/09/17 09:38:04;;;;;;;3.28;0.98;;;13.50;99.90;;;;;;5052155;28;20042;-91
2022/09/17 09:40:45;;;;;;;6.47;1.48;;;13.40;99.90;;;;;;5052500;28;20426;-91
2022/09/17 09:43:22;;;;;;;5.57;1.00;;;13.40;99.90;;;;;;5057868;28;20123;-92
2022/09/17 09:46:22;;;;;;;5.28;1.42;;;13.30;99.90;;;;;;5065708;28;20028;-92
2022/09/17 09:49:25;;;;;;;3.97;1.58;;;13.30;99.90;;;;;;5064359;28;20021;-91
2022/09/17 09:51:57;;;;;;;11.10;1.70;;;13.40;99.90;;;;;;5059497;28;20694;-91
2022/09/17 09:54:46;;;;;;;3.80;1.02;;;13.50;99.90;;;;;;5067618;28;20398;-91
2022/09/17 09:57:16;;;;;;;4.00;2.15;;;13.60;99.90;;;;;;5060834;28;20028;-92
2022/09/17 09:59:42;;;;;;;4.35;1.15;;;13.70;99.90;;;;;;5055795;28;20025;-91
2022/09/17 10:02:08;;;;;;;5.88;1.50;;;13.70;99.90;;;;;;5066947;28;20434;-91
2022/09/17 10:04:33;;;;;;;5.20;1.08;;;13.80;99.90;;;;;;5059376;28;20109;-91
2022/09/17 10:07:08;;;;;;;3.38;1.75;;;13.80;99.90;;;;;;5051262;28;20105;-92
2022/09/17 10:09:35;;;;;;;7.47;2.85;;;13.90;99.90;;;;;;5042059;28;20036;-91
2022/09/17 10:12:07;;;;;;;3.90;1.17;;;13.90;99.90;;;;;;5056054;28;20032;-91
2022/09/17 10:14:38;;;;;;;5.03;1.13;;;13.90;99.90;;;;;;5059027;28;20021;-91
2022/09/17 10:17:23;;;;;;;8.65;1.48;;;13.90;99.90;;;;;;5059175;28;20032;-91
2022/09/17 10:20:04;;;;;;;5.35;1.27;;;14.00;99.90;;;;;;5053497;28;20082;-90
2022/09/17 10:22:42;;;;;;;5.15;1.20;;;14.00;99.90;;;;;;5052528;28;20519;-92
2022/09/17 10:25:31;;;;;;;9.60;1.50;;;13.90;99.90;;;;;;5048693;28;20654;-92
2022/09/17 10:28:00;;;;;;;7.43;1.70;;;13.90;99.90;;;;;;5045937;28;20158;-92
2022/09/17 10:30:27;;;;;;;1.63;0.82;;;13.80;99.90;;;;;;5053204;28;20514;-90
2022/09/17 10:33:26;;;;;;;4.53;1.63;;;13.80;99.90;;;;;;5050893;28;20029;-91
2022/09/17 10:36:15;;;;;;;8.23;1.25;;;13.80;99.90;;;;;;5053117;28;20053;-94
2022/09/17 10:38:46;;;;;;;1.95;1.23;;;13.80;99.90;;;;;;5038862;28;20124;-92
2022/09/17 10:41:20;;;;;;;4.28;1.75;;;13.80;99.90;;;;;;5055535;28;20069;-96
2022/09/17 10:44:41;;;;;;;;;;;;;;;;;;;;;
2022/09/17 10:47:21;;;;;;;7.45;1.58;;;13.60;99.90;;;;;;5077831;28;20076;-96
2022/09/17 10:49:58;;;;;;;3.65;1.00;;;13.50;99.90;;;;;;5074493;28;20010;-96
2022/09/17 10:52:33;;;;;;;2.60;0.95;;;13.40;99.90;;;;;;5060969;22;20052;-86
2022/09/17 10:55:04;;;;;;;4.30;0.77;;;13.50;99.90;;;;;;5062416;28;20025;-86
2022/09/17 10:57:52;;;;;;;5.25;1.00;;;13.60;99.90;;;;;;5045465;28;20083;-86
2022/09/17 11:00:22;;;;;;;4.50;1.10;;;13.60;99.90;;;;;;5043441;28;20030;-87
2022/09/17 11:03:12;;;;;;;6.03;1.70;;;13.70;99.90;;;;;;5050001;28;20021;-87
2022/09/17 11:06:06;;;;;;;5.75;1.35;;;13.80;99.90;;;;;;5052103;28;20029;-86
2022/09/17 11:08:38;;;;;;;2.50;1.48;;;13.90;99.90;;;;;;5051285;28;20071;-87
2022/09/17 11:11:17;;;;;;;13.40;1.58;;;13.90;99.90;;;;;;5050901;28;20040;-86
2022/09/17 11:14:03;;;;;;;8.50;1.55;;;14.00;99.90;;;;;;5049067;28;20025;-85
2022/09/17 11:16:50;;;;;;;3.60;1.10;;;14.10;99.90;;;;;;5058256;28;20449;-87
2022/09/17 11:19:22;;;;;;;3.97;1.00;;;14.20;99.90;;;;;;5050475;28;20028;-85
2022/09/17 11:21:55;;;;;;;5.47;0.82;;;14.10;99.90;;;;;;5052363;28;20017;-86
2022/09/17 11:25:06;;;;;;;4.50;1.15;;;14.00;99.90;;;;;;5054180;28;20116;-86
2022/09/17 11:27:54;;;;;;;4.32;1.25;;;14.00;99.90;;;;;;5037148;28;20040;-87
2022/09/17 11:30:22;;;;;;;3.47;0.82;;;14.00;99.90;;;;;;5054899;28;20036;-86
2022/09/17 11:32:51;;;;;;;2.15;0.63;;;14.00;99.90;;;;;;5055433;28;20471;-88
2022/09/17 11:35:22;;;;;;;3.17;1.25;;;14.00;99.90;;;;;;5057122;28;20021;-84
2022/09/17 11:38:07;;;;;;;5.82;1.13;;;14.00;99.90;;;;;;5055240;28;20405;-86
2022/09/17 11:41:11;;;;;;;5.55;1.27;;;14.10;99.90;;;;;;5055714;28;20025;-87
2022/09/17 11:43:41;;;;;;;7.82;1.15;;;14.10;99.90;;;;;;5045261;28;20041;-87
2022/09/17 11:46:19;;;;;;;2.83;1.10;;;14.20;99.90;;;;;;5058424;28;20053;-87
2022/09/17 11:49:01;;;;;;;5.25;1.35;;;14.20;99.90;;;;;;5056644;28;20501;-87
2022/09/17 11:51:38;;;;;;;2.58;0.68;;;14.20;99.90;;;;;;5048883;28;20116;-86
2022/09/17 11:54:48;;;;;;;2.15;1.08;;;14.20;99.90;;;;;;5056909;28;20428;-86
2022/09/17 11:57:38;;;;;;;5.05;1.23;;;14.20;99.90;;;;;;5003002;28;20073;-86
2022/09/17 12:00:13;;;;;;;4.75;1.10;;;14.20;99.90;;;;;;4970465;28;20039;-85
2022/09/17 12:02:50;;;;;;;6.60;0.95;;;14.20;99.90;;;;;;5038181;28;20079;-86
2022/09/17 12:05:19;;;;;;;8.23;1.13;;;14.20;99.90;;;;;;5055320;28;20061;-86
2022/09/17 12:08:19;;;;;;;2.25;1.02;;;14.20;99.90;;;;;;5054435;28;20029;-85
2022/09/17 12:11:08;;;;;;;3.00;1.10;;;14.20;99.90;;;;;;5034862;28;20144;-82
2022/09/17 12:13:50;;;;;;;5.13;1.30;;;14.20;99.90;;;;;;5063935;28;20021;-81
2022/09/17 12:16:30;;;;;;;8.98;1.55;;;14.40;99.90;;;;;;5042091;28;20033;-79
2022/09/17 12:19:20;;;;;;;3.40;1.15;;;14.50;99.90;;;;;;5049540;28;20393;-78
2022/09/17 12:21:51;;;;;;;5.25;1.60;;;14.70;99.90;;;;;;5046178;28;20112;-80
2022/09/17 12:24:33;;;;;;;6.80;1.00;;;14.90;99.90;;;;;;5054673;28;20414;-79
2022/09/17 12:27:22;;;;;;;2.97;0.93;;;15.00;99.90;;;;;;5054212;28;20108;-79
2022/09/17 12:30:10;;;;;;;7.43;1.25;;;15.20;99.90;;;;;;5039081;28;20132;-80
2022/09/17 12:32:59;;;;;;;2.78;0.82;;;15.30;99.90;;;;;;5051289;28;20090;-80
2022/09/17 12:35:44;;;;;;;4.45;0.88;;;15.40;99.90;;;;;;5054395;28;20085;-80
2022/09/17 12:38:21;;;;;;;3.15;1.25;;;15.50;99.90;;;;;;5060361;28;20021;-79
2022/09/17 12:41:02;;;;;;;2.47;0.88;;;15.50;99.90;;;;;;5050317;28;20413;-78
2022/09/17 12:43:39;;;;;;;4.97;0.73;;;15.60;99.90;;;;;;5061576;28;20389;-80
2022/09/17 12:46:14;;;;;;;1.63;0.80;;;15.60;99.90;;;;;;5053928;28;20029;-81
2022/09/17 12:49:02;;;;;;;3.28;0.90;;;15.70;99.90;;;;;;5059580;28;20021;-82
2022/09/17 12:51:46;;;;;;;2.65;0.75;;;15.70;99.90;;;;;;5053859;28;20108;-80
2022/09/17 12:54:22;;;;;;;1.70;0.93;;;15.80;99.90;;;;;;5046957;28;20037;-80
2022/09/17 12:56:57;;;;;;;3.35;1.20;;;15.80;99.90;;;;;;5059485;28;20073;-79
2022/09/17 12:59:30;;;;;;;1.33;0.70;;;15.80;99.90;;;;;;5069461;28;20021;-80
2022/09/17 13:02:16;;;;;;;1.38;0.95;;;15.80;99.90;;;;;;5057573;28;20021;-79
2022/09/17 13:05:04;;;;;;;5.15;0.85;;;15.90;99.90;;;;;;5044403;28;20025;-78
2022/09/17 13:07:58;;;;;;;2.22;1.10;;;15.80;99.90;;;;;;5048253;28;20060;-79
2022/09/17 13:10:24;;;;;;;1.85;1.10;;;15.80;99.90;;;;;;5050406;28;20052;-79
2022/09/17 13:13:23;;;;;;;2.45;0.90;;;15.90;99.90;;;;;;5057384;28;20048;-79
2022/09/17 13:16:10;;;;;;;3.20;0.93;;;15.90;99.90;;;;;;5056972;28;20025;-78
2022/09/17 13:18:55;;;;;;;1.23;0.93;;;15.80;99.90;;;;;;5046808;28;20067;-79
2022/09/17 13:21:50;;;;;;;1.98;1.02;;;15.80;99.90;;;;;;5050550;28;20068;-78